Time;durP1;ratioP1;P1;durP2;ratioP2;P2;SDS_P1;SDS_P2;PMS_P1;PMS_P2;Temp;Humidity;BMP_temperature;BMP_pressure;BME280_temperature;BME280_humidity;BME280_pressure;Samples;Min_cycle;Max_cycle;Signal;HPM_P1;HPM_P2
2024/02/03 00:00:34;;;;;;;8.23;7.43;;;8.40;99.90;;;;;;4962608;28;20199;-73
2024/02/03 00:03:01;;;;;;;7.80;7.00;;;8.50;99.90;;;;;;4960730;28;20215;-73
2024/02/03 00:05:28;;;;;;;7.63;6.93;;;8.40;99.90;;;;;;4960332;28;20211;-73
2024/02/03 00:07:55;;;;;;;8.43;7.00;;;8.50;99.90;;;;;;4959061;28;20632;-73
2024/02/03 00:10:22;;;;;;;8.13;7.33;;;8.50;99.90;;;;;;4966248;28;20249;-73
2024/02/03 00:12:49;;;;;;;7.90;7.20;;;8.50;99.90;;;;;;4969149;28;20243;-73
2024/02/03 00:15:17;;;;;;;7.17;6.30;;;8.50;99.90;;;;;;4957815;28;20207;-73
2024/02/03 00:17:45;;;;;;;7.97;7.17;;;8.50;99.90;;;;;;4949979;28;20231;-73
2024/02/03 00:20:14;;;;;;;8.70;7.50;;;8.50;99.90;;;;;;4949968;28;20228;-73
2024/02/03 00:22:43;;;;;;;7.80;7.00;;;8.50;99.90;;;;;;4950920;28;20235;-73
2024/02/03 00:25:11;;;;;;;7.37;6.67;;;8.50;99.90;;;;;;4969132;28;20207;-73
2024/02/03 00:27:38;;;;;;;7.60;6.90;;;8.60;99.90;;;;;;4968190;28;20666;-73
2024/02/03 00:30:07;;;;;;;8.43;7.53;;;8.60;99.90;;;;;;4967594;28;20975;-73
2024/02/03 00:32:34;;;;;;;8.37;7.57;;;8.60;99.90;;;;;;4966768;28;20207;-73
2024/02/03 00:35:02;;;;;;;7.27;6.57;;;8.60;99.90;;;;;;4968532;28;20714;-73
2024/02/03 00:37:29;;;;;;;7.93;7.13;;;8.60;99.90;;;;;;4968074;28;20246;-71
2024/02/03 00:39:57;;;;;;;8.30;7.50;;;8.60;99.90;;;;;;4968225;28;20672;-71
2024/02/03 00:42:24;;;;;;;8.47;7.67;;;8.70;99.90;;;;;;4968035;28;20566;-71
2024/02/03 00:44:51;;;;;;;7.50;6.90;;;8.70;99.90;;;;;;4968511;28;20257;-72
2024/02/03 00:47:18;;;;;;;7.97;7.17;;;8.70;99.90;;;;;;4966945;28;20258;-72
2024/02/03 00:49:45;;;;;;;7.83;7.13;;;8.70;99.90;;;;;;4968548;28;20214;-71
2024/02/03 00:52:13;;;;;;;7.73;7.00;;;8.70;99.90;;;;;;4968601;28;20294;-71
2024/02/03 00:54:40;;;;;;;8.03;7.33;;;8.70;99.90;;;;;;4967166;28;20203;-71
2024/02/03 00:57:07;;;;;;;8.00;7.23;;;8.70;99.90;;;;;;4968558;28;20230;-71
2024/02/03 00:59:34;;;;;;;7.40;6.70;;;8.70;99.90;;;;;;4968572;28;20209;-71
2024/02/03 01:02:01;;;;;;;7.67;6.80;;;8.70;99.90;;;;;;4962027;28;20234;-73
2024/02/03 01:04:28;;;;;;;7.27;6.57;;;8.70;99.90;;;;;;4949559;28;20586;-73
2024/02/03 01:06:55;;;;;;;8.73;7.00;;;8.70;99.90;;;;;;4949170;28;20676;-73
2024/02/03 01:09:24;;;;;;;7.63;6.83;;;8.70;99.90;;;;;;4949349;28;20218;-73
2024/02/03 01:11:51;;;;;;;7.43;6.47;;;8.70;99.90;;;;;;4949283;28;20204;-73
2024/02/03 01:14:18;;;;;;;7.67;6.97;;;8.80;99.90;;;;;;4949189;28;20243;-73
2024/02/03 01:16:46;;;;;;;7.37;6.67;;;8.80;99.90;;;;;;4948857;28;20211;-73
2024/02/03 01:19:13;;;;;;;9.27;6.80;;;8.80;99.90;;;;;;4949300;28;20239;-73
2024/02/03 01:21:43;;;;;;;7.80;7.10;;;8.80;99.90;;;;;;4948723;28;20318;-73
2024/02/03 01:24:10;;;;;;;6.90;6.20;;;8.90;99.90;;;;;;4962176;28;20517;-73
2024/02/03 01:26:38;;;;;;;7.47;6.80;;;8.90;99.90;;;;;;4968065;28;20732;-73
2024/02/03 01:29:06;;;;;;;7.03;6.43;;;8.90;99.90;;;;;;4968382;28;20681;-73
2024/02/03 01:31:33;;;;;;;7.43;6.60;;;8.90;99.90;;;;;;4967818;28;20215;-73
2024/02/03 01:33:59;;;;;;;7.23;6.60;;;8.90;99.90;;;;;;4967384;28;20214;-73
2024/02/03 01:36:26;;;;;;;7.40;6.70;;;9.00;99.90;;;;;;4967082;28;20211;-73
2024/02/03 01:38:54;;;;;;;7.03;6.37;;;9.00;99.90;;;;;;4967827;28;20317;-73
2024/02/03 01:41:21;;;;;;;7.80;7.10;;;9.00;99.90;;;;;;4969866;28;20242;-73
2024/02/03 01:43:49;;;;;;;7.43;6.83;;;9.00;99.90;;;;;;4971983;28;20202;-73
2024/02/03 01:46:18;;;;;;;7.40;6.80;;;9.00;99.90;;;;;;4952722;28;20254;-73
2024/02/03 01:48:46;;;;;;;7.03;6.43;;;9.10;99.90;;;;;;4962133;28;21025;-73
2024/02/03 01:51:16;;;;;;;7.10;6.50;;;9.10;99.90;;;;;;4971842;28;20745;-73
2024/02/03 01:53:44;;;;;;;7.70;7.00;;;9.10;99.90;;;;;;4961995;28;20215;-73
2024/02/03 01:56:11;;;;;;;7.53;6.87;;;9.20;99.90;;;;;;4963473;28;20269;-73
2024/02/03 01:58:38;;;;;;;7.10;6.50;;;9.20;99.90;;;;;;4969983;28;20313;-73
2024/02/03 02:01:07;;;;;;;6.80;6.20;;;9.20;99.90;;;;;;4952785;28;20258;-73
2024/02/03 02:03:35;;;;;;;6.40;5.83;;;9.20;99.90;;;;;;4952675;29;20395;-73
2024/02/03 02:06:02;;;;;;;6.90;6.20;;;9.20;99.90;;;;;;4952244;28;20215;-73
2024/02/03 02:08:33;;;;;;;6.90;6.30;;;9.20;99.90;;;;;;4952649;28;20211;-73
2024/02/03 02:11:00;;;;;;;6.47;5.97;;;9.20;99.90;;;;;;4952372;28;20262;-73
2024/02/03 02:13:28;;;;;;;6.00;5.40;;;9.30;99.90;;;;;;4952205;28;20251;-73
2024/02/03 02:15:55;;;;;;;6.23;5.73;;;9.30;99.90;;;;;;4952177;28;20218;-72
2024/02/03 02:18:24;;;;;;;6.90;6.30;;;9.30;99.90;;;;;;4952311;28;20245;-73
2024/02/03 02:20:56;;;;;;;6.73;6.10;;;9.40;99.90;;;;;;4969200;28;20255;-73
2024/02/03 02:23:23;;;;;;;6.93;6.30;;;9.40;99.90;;;;;;4963848;28;20740;-73
2024/02/03 02:25:50;;;;;;;7.13;6.43;;;9.40;99.90;;;;;;4951946;29;20771;-74
2024/02/03 02:28:17;;;;;;;7.20;6.50;;;9.50;99.90;;;;;;4970284;28;20219;-73
2024/02/03 02:30:44;;;;;;;6.57;5.97;;;9.50;99.90;;;;;;4955902;28;20356;-74
2024/02/03 02:33:12;;;;;;;6.90;6.23;;;9.50;99.90;;;;;;4968754;28;20592;-73
2024/02/03 02:35:39;;;;;;;6.80;6.20;;;9.50;99.90;;;;;;4962915;28;20239;-74
2024/02/03 02:38:07;;;;;;;7.23;6.53;;;9.50;99.90;;;;;;4951792;28;20245;-74
2024/02/03 02:40:34;;;;;;;7.70;6.97;;;9.50;99.90;;;;;;4969141;28;20207;-74
2024/02/03 02:43:04;;;;;;;7.27;6.43;;;9.50;99.90;;;;;;4968740;28;20701;-74
2024/02/03 02:45:31;;;;;;;7.67;6.80;;;9.50;99.90;;;;;;4951789;28;20214;-73
2024/02/03 02:47:58;;;;;;;8.10;7.30;;;9.50;99.90;;;;;;4951559;28;20211;-73
2024/02/03 02:50:25;;;;;;;7.43;6.73;;;9.60;99.90;;;;;;4951296;28;20215;-74
2024/02/03 02:52:52;;;;;;;8.33;7.27;;;9.60;99.90;;;;;;4964991;28;20242;-74
2024/02/03 02:55:20;;;;;;;8.30;7.30;;;9.60;99.90;;;;;;4965800;28;20208;-73
2024/02/03 02:57:47;;;;;;;7.70;7.10;;;9.60;99.90;;;;;;4951314;29;20322;-73
2024/02/03 03:00:15;;;;;;;8.07;7.27;;;9.60;99.90;;;;;;4951406;28;20956;-74
2024/02/03 03:02:42;;;;;;;8.40;7.60;;;9.60;99.90;;;;;;4951656;28;20562;-74
2024/02/03 03:05:11;;;;;;;8.03;7.23;;;9.60;99.90;;;;;;4951151;29;20775;-73
2024/02/03 03:07:39;;;;;;;8.13;7.43;;;9.60;99.90;;;;;;4964115;28;20277;-74
2024/02/03 03:10:06;;;;;;;8.93;8.03;;;9.60;99.90;;;;;;4951418;28;20212;-74
2024/02/03 03:12:35;;;;;;;9.50;7.70;;;9.70;99.90;;;;;;4951568;28;20208;-74
2024/02/03 03:15:02;;;;;;;8.67;7.33;;;9.70;99.90;;;;;;4970006;28;20203;-74
2024/02/03 03:17:29;;;;;;;8.77;7.93;;;9.70;99.90;;;;;;4970508;28;20672;-74
2024/02/03 03:19:56;;;;;;;9.13;8.23;;;9.80;99.90;;;;;;4969909;28;20313;-74
2024/02/03 03:22:23;;;;;;;8.93;7.37;;;9.80;99.90;;;;;;4969866;28;20410;-74
2024/02/03 03:24:50;;;;;;;8.10;7.33;;;9.80;99.90;;;;;;4968728;28;20356;-74
2024/02/03 03:27:17;;;;;;;9.20;7.77;;;9.80;99.90;;;;;;4962383;28;20215;-75
2024/02/03 03:29:46;;;;;;;8.00;7.23;;;9.80;99.90;;;;;;4961840;28;20491;-74
2024/02/03 03:32:13;;;;;;;8.23;7.43;;;9.80;99.90;;;;;;4964721;28;20665;-73
2024/02/03 03:34:41;;;;;;;9.50;7.40;;;9.90;99.90;;;;;;4970317;28;20207;-73
2024/02/03 03:37:08;;;;;;;8.27;7.50;;;9.90;99.90;;;;;;4969689;28;20313;-73
2024/02/03 03:39:35;;;;;;;8.27;7.40;;;9.90;99.90;;;;;;4969663;28;20247;-73
2024/02/03 03:42:01;;;;;;;8.57;7.77;;;9.90;99.90;;;;;;4970096;28;20310;-73
2024/02/03 03:44:28;;;;;;;8.70;7.90;;;9.90;99.90;;;;;;4960543;28;20207;-73
2024/02/03 03:46:56;;;;;;;12.83;8.43;;;9.80;99.90;;;;;;4950750;28;20294;-73
2024/02/03 03:49:23;;;;;;;8.57;7.67;;;9.80;99.90;;;;;;4967572;28;20302;-77
2024/02/03 03:51:50;;;;;;;8.77;7.87;;;9.80;99.90;;;;;;4968741;28;20327;-77
2024/02/03 03:54:17;;;;;;;8.57;7.77;;;9.70;99.90;;;;;;4964853;28;20274;-73
2024/02/03 03:56:44;;;;;;;9.00;8.10;;;9.80;99.90;;;;;;4969281;28;20765;-74
2024/02/03 03:59:11;;;;;;;9.57;8.53;;;9.80;99.90;;;;;;4970004;28;20235;-73
2024/02/03 04:01:38;;;;;;;8.93;8.07;;;9.80;99.90;;;;;;4969573;28;20273;-73
2024/02/03 04:04:06;;;;;;;8.90;8.00;;;9.90;99.90;;;;;;4969813;28;20309;-73
2024/02/03 04:06:33;;;;;;;10.13;7.57;;;9.90;99.90;;;;;;4969963;28;20261;-73
2024/02/03 04:09:01;;;;;;;9.33;8.37;;;9.90;99.90;;;;;;4958690;28;20208;-73
2024/02/03 04:11:27;;;;;;;9.63;8.70;;;9.90;99.90;;;;;;4950022;28;20298;-73
2024/02/03 04:13:54;;;;;;;10.80;8.23;;;9.90;99.90;;;;;;4951084;28;20239;-73
2024/02/03 04:16:21;;;;;;;10.10;7.87;;;10.00;99.90;;;;;;4950215;28;20243;-72
2024/02/03 04:18:49;;;;;;;8.40;7.70;;;10.00;99.90;;;;;;4949784;28;20647;-72
2024/02/03 04:21:17;;;;;;;8.63;7.83;;;10.00;99.90;;;;;;4964284;28;20317;-73
2024/02/03 04:23:44;;;;;;;9.97;7.90;;;10.00;99.90;;;;;;4975421;28;20733;-72
2024/02/03 04:26:11;;;;;;;9.03;8.00;;;10.00;99.90;;;;;;4969381;28;20286;-72
2024/02/03 04:28:37;;;;;;;7.77;7.10;;;10.00;99.90;;;;;;4969349;28;20242;-72
2024/02/03 04:31:05;;;;;;;10.37;8.37;;;10.10;99.90;;;;;;4968917;28;20805;-73
2024/02/03 04:33:32;;;;;;;8.43;7.60;;;10.10;99.90;;;;;;4968648;28;20225;-73
2024/02/03 04:35:59;;;;;;;7.93;7.23;;;10.10;99.90;;;;;;4969371;28;20217;-73
2024/02/03 04:38:27;;;;;;;8.30;7.60;;;10.10;99.90;;;;;;4959465;28;20314;-73
2024/02/03 04:40:54;;;;;;;7.90;7.10;;;10.10;99.90;;;;;;4949685;28;20298;-73
2024/02/03 04:43:20;;;;;;;8.00;7.13;;;10.10;99.90;;;;;;4950039;28;20211;-73
2024/02/03 04:45:47;;;;;;;7.60;6.90;;;10.10;99.90;;;;;;4967397;28;20305;-73
2024/02/03 04:48:14;;;;;;;8.13;7.43;;;10.10;99.90;;;;;;4968363;28;20210;-73
2024/02/03 04:50:41;;;;;;;7.43;6.70;;;10.10;99.90;;;;;;4968765;28;20549;-73
2024/02/03 04:53:09;;;;;;;8.47;7.63;;;10.10;99.90;;;;;;4968578;28;20297;-74
2024/02/03 04:55:37;;;;;;;8.20;7.40;;;10.20;99.90;;;;;;4968975;28;20213;-73
2024/02/03 04:58:04;;;;;;;8.03;7.23;;;10.20;99.90;;;;;;4969149;28;20310;-73
2024/02/03 05:00:31;;;;;;;9.30;7.40;;;10.20;99.90;;;;;;4968425;28;20281;-73
2024/02/03 05:02:58;;;;;;;7.43;6.83;;;10.20;99.90;;;;;;4968783;28;20218;-73
2024/02/03 05:05:25;;;;;;;7.13;6.50;;;10.20;99.90;;;;;;4968573;28;20225;-73
2024/02/03 05:07:51;;;;;;;8.37;7.53;;;10.20;99.90;;;;;;4968608;28;20241;-73
2024/02/03 05:10:18;;;;;;;8.20;7.40;;;10.10;99.90;;;;;;4968474;28;20330;-73
2024/02/03 05:12:47;;;;;;;8.53;6.97;;;10.10;99.90;;;;;;4959422;28;20557;-73
2024/02/03 05:15:14;;;;;;;7.70;6.97;;;10.10;99.90;;;;;;4948478;28;20330;-74
2024/02/03 05:17:41;;;;;;;8.40;7.30;;;10.10;99.90;;;;;;4955065;28;20298;-74
2024/02/03 05:20:09;;;;;;;7.20;6.60;;;10.10;99.90;;;;;;4968205;28;20337;-74
2024/02/03 05:22:35;;;;;;;7.90;7.10;;;10.10;99.90;;;;;;4967774;28;20253;-74
2024/02/03 05:25:03;;;;;;;8.33;7.53;;;10.10;99.90;;;;;;4967708;28;20243;-73
2024/02/03 05:27:30;;;;;;;8.07;7.27;;;10.10;99.90;;;;;;4967902;28;20206;-73
2024/02/03 05:29:58;;;;;;;8.07;7.37;;;10.10;99.90;;;;;;4968070;28;20489;-74
2024/02/03 05:32:25;;;;;;;7.10;6.47;;;10.10;99.90;;;;;;4967487;28;20290;-73
2024/02/03 05:34:52;;;;;;;7.07;6.37;;;10.10;99.90;;;;;;4968103;28;20218;-72
2024/02/03 05:37:19;;;;;;;6.93;6.30;;;10.10;99.90;;;;;;4967697;28;20819;-72
2024/02/03 05:39:46;;;;;;;6.50;5.90;;;10.10;99.90;;;;;;4968024;28;20329;-72
2024/02/03 05:42:13;;;;;;;7.53;6.83;;;10.10;99.90;;;;;;4967623;28;20281;-72
2024/02/03 05:44:39;;;;;;;7.20;6.43;;;10.10;99.90;;;;;;4968140;28;20211;-72
2024/02/03 05:47:08;;;;;;;13.57;6.80;;;10.10;99.90;;;;;;4968004;28;20752;-72
2024/02/03 05:49:35;;;;;;;7.03;6.33;;;10.10;99.90;;;;;;4967737;28;20298;-72
2024/02/03 05:52:02;;;;;;;7.20;6.50;;;10.10;99.90;;;;;;4968097;28;20336;-73
2024/02/03 05:54:29;;;;;;;6.57;6.07;;;10.10;99.90;;;;;;4967173;28;20262;-73
2024/02/03 05:56:55;;;;;;;7.40;6.63;;;10.10;99.90;;;;;;4956747;28;20199;-73
2024/02/03 05:59:22;;;;;;;6.67;6.03;;;10.10;99.90;;;;;;4948715;28;20313;-72
2024/02/03 06:01:50;;;;;;;6.40;5.73;;;10.10;99.90;;;;;;4948567;28;20297;-72
2024/02/03 06:04:19;;;;;;;6.67;6.07;;;10.20;99.90;;;;;;4948824;28;20635;-72
2024/02/03 06:06:46;;;;;;;7.53;6.83;;;10.20;99.90;;;;;;4957085;28;20199;-73
2024/02/03 06:09:14;;;;;;;6.73;6.10;;;10.20;99.90;;;;;;4967584;28;20648;-73
2024/02/03 06:11:41;;;;;;;7.80;6.50;;;10.20;99.90;;;;;;4967711;28;20214;-73
2024/02/03 06:14:07;;;;;;;6.03;5.30;;;10.20;99.90;;;;;;4967674;28;20770;-74
2024/02/03 06:16:34;;;;;;;5.73;5.33;;;10.20;99.90;;;;;;4967704;28;20203;-73
2024/02/03 06:19:01;;;;;;;5.30;4.90;;;10.10;99.90;;;;;;4967351;28;20258;-73
2024/02/03 06:21:29;;;;;;;6.33;5.73;;;10.10;99.90;;;;;;4967211;28;20282;-73
2024/02/03 06:23:56;;;;;;;6.50;5.83;;;10.20;99.90;;;;;;4967837;28;20207;-73
2024/02/03 06:26:23;;;;;;;6.23;5.73;;;10.20;99.90;;;;;;4967882;28;20219;-74
2024/02/03 06:28:50;;;;;;;6.37;5.87;;;10.20;99.90;;;;;;4971787;28;20225;-73
2024/02/03 06:31:17;;;;;;;5.67;5.23;;;10.20;99.90;;;;;;4970774;28;20302;-73
2024/02/03 06:33:44;;;;;;;5.93;5.40;;;10.10;99.90;;;;;;4971517;28;20326;-73
2024/02/03 06:36:10;;;;;;;6.03;5.43;;;10.10;99.90;;;;;;4971455;28;20616;-73
2024/02/03 06:38:39;;;;;;;6.37;5.80;;;10.10;99.90;;;;;;4971172;28;20248;-73
2024/02/03 06:41:05;;;;;;;6.50;5.93;;;10.20;99.90;;;;;;4970681;28;20760;-76
2024/02/03 06:43:32;;;;;;;6.33;5.73;;;10.10;99.90;;;;;;4959735;28;20294;-76
2024/02/03 06:45:59;;;;;;;6.23;5.73;;;10.20;99.90;;;;;;4951759;28;20218;-76
2024/02/03 06:48:26;;;;;;;6.73;6.00;;;10.10;99.90;;;;;;4951878;28;20310;-73
2024/02/03 06:50:53;;;;;;;6.30;5.80;;;10.10;99.90;;;;;;4951715;28;20298;-75
2024/02/03 06:53:20;;;;;;;6.33;5.83;;;10.10;99.90;;;;;;4952042;28;20211;-75
2024/02/03 06:55:48;;;;;;;6.23;5.73;;;10.10;99.90;;;;;;4965742;28;20238;-75
2024/02/03 06:58:15;;;;;;;7.17;6.57;;;10.10;99.90;;;;;;4970335;28;20203;-74
2024/02/03 07:00:42;;;;;;;6.47;5.87;;;10.10;99.90;;;;;;4951047;28;20728;-74
2024/02/03 07:03:09;;;;;;;6.63;6.07;;;10.10;99.90;;;;;;4958090;28;20666;-73
2024/02/03 07:05:36;;;;;;;6.90;6.30;;;10.00;99.90;;;;;;4970847;28;20739;-74
2024/02/03 07:08:03;;;;;;;7.17;6.53;;;10.00;99.90;;;;;;4970361;28;20210;-74
2024/02/03 07:10:30;;;;;;;7.80;7.00;;;10.00;99.90;;;;;;4970427;28;20301;-74
2024/02/03 07:12:59;;;;;;;7.80;7.03;;;10.00;99.90;;;;;;4970522;28;20740;-73
2024/02/03 07:15:26;;;;;;;7.40;6.60;;;10.00;99.90;;;;;;4970218;28;20219;-74
2024/02/03 07:17:53;;;;;;;7.00;6.50;;;9.90;99.90;;;;;;4970866;28;20822;-74
2024/02/03 07:20:20;;;;;;;7.60;6.90;;;9.90;99.90;;;;;;4966631;28;20285;-74
2024/02/03 07:22:47;;;;;;;7.20;6.60;;;10.00;99.90;;;;;;4966341;28;20238;-74
2024/02/03 07:25:16;;;;;;;7.37;6.77;;;9.90;99.90;;;;;;4951121;29;20218;-73
2024/02/03 07:27:43;;;;;;;7.67;6.97;;;9.90;99.90;;;;;;4951523;28;20415;-73
2024/02/03 07:30:12;;;;;;;7.07;6.47;;;9.90;99.90;;;;;;4951188;29;20306;-73
2024/02/03 07:32:39;;;;;;;7.07;6.43;;;10.00;99.90;;;;;;4954603;28;20242;-74
2024/02/03 07:35:07;;;;;;;6.93;6.27;;;9.90;99.90;;;;;;4970456;28;20301;-74
2024/02/03 07:37:34;;;;;;;7.67;6.90;;;9.90;99.90;;;;;;4959950;28;20209;-74
2024/02/03 07:40:01;;;;;;;7.50;6.80;;;9.90;99.90;;;;;;4950256;28;20278;-74
2024/02/03 07:42:28;;;;;;;7.60;6.90;;;9.90;99.90;;;;;;4950645;28;20214;-74
2024/02/03 07:44:54;;;;;;;7.77;7.07;;;9.90;99.90;;;;;;4968584;28;20748;-73
2024/02/03 07:47:23;;;;;;;7.90;6.80;;;9.90;99.90;;;;;;4970186;28;20317;-73
2024/02/03 07:49:50;;;;;;;6.87;6.20;;;9.90;99.90;;;;;;4970005;28;20241;-73
2024/02/03 07:52:18;;;;;;;8.00;7.20;;;9.90;99.90;;;;;;4969692;28;20210;-73
2024/02/03 07:54:45;;;;;;;6.93;6.27;;;9.80;99.90;;;;;;4969090;28;20301;-73
2024/02/03 07:57:11;;;;;;;7.40;6.70;;;9.80;99.90;;;;;;4950083;28;20302;-73
2024/02/03 07:59:38;;;;;;;7.77;6.97;;;9.80;99.90;;;;;;4970665;28;20313;-73
2024/02/03 08:02:06;;;;;;;7.77;7.07;;;9.80;99.90;;;;;;4989168;28;20208;-73
2024/02/03 08:04:34;;;;;;;7.97;7.17;;;9.80;99.90;;;;;;4976165;28;20564;-73
2024/02/03 08:07:01;;;;;;;7.53;6.83;;;9.80;99.90;;;;;;4971219;28;20297;-73
2024/02/03 08:09:28;;;;;;;7.50;6.80;;;9.70;99.90;;;;;;4982138;28;20251;-73
2024/02/03 08:11:56;;;;;;;6.93;6.30;;;9.70;99.90;;;;;;4969353;28;20210;-73
2024/02/03 08:14:23;;;;;;;7.20;6.40;;;9.70;99.90;;;;;;4969318;28;20298;-73
2024/02/03 08:16:49;;;;;;;7.43;6.73;;;9.70;99.90;;;;;;4968225;28;20211;-73
2024/02/03 08:19:16;;;;;;;7.03;6.37;;;9.80;99.90;;;;;;4969377;28;20247;-73
2024/02/03 08:21:45;;;;;;;7.07;6.47;;;9.80;99.90;;;;;;4968736;28;20294;-72
2024/02/03 08:24:11;;;;;;;6.80;6.10;;;9.80;99.90;;;;;;4969118;28;20206;-72
2024/02/03 08:26:38;;;;;;;6.80;6.13;;;9.80;99.90;;;;;;4968636;28;20203;-72
2024/02/03 08:29:05;;;;;;;6.77;6.13;;;9.80;99.90;;;;;;4965765;28;20242;-72
2024/02/03 08:31:32;;;;;;;6.33;5.73;;;9.80;99.90;;;;;;4965761;28;20213;-72
2024/02/03 08:33:59;;;;;;;6.67;6.07;;;9.80;99.90;;;;;;4956083;28;20298;-72
2024/02/03 08:36:26;;;;;;;6.53;5.93;;;9.90;99.90;;;;;;4968535;28;20250;-73
2024/02/03 08:38:54;;;;;;;6.83;6.23;;;9.90;99.90;;;;;;4968660;28;20210;-74
2024/02/03 08:41:21;;;;;;;6.73;6.13;;;9.90;99.90;;;;;;4968345;28;20230;-74
2024/02/03 08:43:48;;;;;;;6.23;5.63;;;9.90;99.90;;;;;;4968944;28;20250;-74
2024/02/03 08:46:16;;;;;;;5.93;5.43;;;9.90;99.90;;;;;;4968607;28;20780;-74
2024/02/03 08:48:43;;;;;;;6.50;5.90;;;9.90;99.90;;;;;;4968867;28;20214;-74
2024/02/03 08:51:10;;;;;;;6.47;5.80;;;10.00;99.90;;;;;;4968164;28;20402;-74
2024/02/03 08:53:36;;;;;;;5.73;5.23;;;10.00;99.90;;;;;;4968365;28;20290;-74
2024/02/03 08:56:08;;;;;;;6.27;5.77;;;10.00;99.90;;;;;;4968668;28;20246;-74
2024/02/03 08:58:35;;;;;;;6.03;5.30;;;10.00;99.90;;;;;;4968678;28;20258;-74
2024/02/03 09:01:02;;;;;;;6.00;5.50;;;10.00;99.90;;;;;;4968565;28;20234;-73
2024/02/03 09:03:29;;;;;;;6.10;5.60;;;10.00;99.90;;;;;;4968803;28;20211;-75
2024/02/03 09:05:56;;;;;;;6.10;5.60;;;10.10;99.90;;;;;;4968073;28;20302;-74
2024/02/03 09:08:23;;;;;;;5.27;4.87;;;10.00;99.90;;;;;;4968421;28;20250;-73
2024/02/03 09:10:50;;;;;;;5.60;5.13;;;10.10;99.90;;;;;;4968201;28;20558;-74
2024/02/03 09:13:18;;;;;;;5.27;4.87;;;10.10;99.90;;;;;;4968703;28;20234;-74
2024/02/03 09:15:45;;;;;;;5.43;5.03;;;10.10;99.90;;;;;;4964485;28;20290;-74
2024/02/03 09:18:12;;;;;;;5.23;4.73;;;10.10;99.90;;;;;;4949062;28;20298;-74
2024/02/03 09:20:38;;;;;;;5.50;5.10;;;10.10;99.90;;;;;;4948931;28;20330;-74
2024/02/03 09:23:05;;;;;;;5.40;5.00;;;10.10;99.90;;;;;;4948913;28;20830;-73
2024/02/03 09:25:32;;;;;;;5.40;4.87;;;10.10;99.90;;;;;;4954461;28;20571;-74
2024/02/03 09:27:59;;;;;;;5.80;5.40;;;10.10;99.90;;;;;;4967393;28;20203;-74
2024/02/03 09:30:27;;;;;;;4.90;4.50;;;10.10;99.90;;;;;;4967999;28;20564;-73
2024/02/03 09:32:54;;;;;;;4.83;4.43;;;10.10;99.90;;;;;;4967902;28;20323;-73
2024/02/03 09:35:21;;;;;;;6.07;5.57;;;10.10;99.90;;;;;;4968529;28;20301;-73
2024/02/03 09:37:48;;;;;;;5.27;4.83;;;10.00;99.90;;;;;;4968034;28;20298;-74
2024/02/03 09:40:20;;;;;;;6.00;5.37;;;10.00;99.90;;;;;;4967867;28;20266;-73
2024/02/03 09:42:49;;;;;;;5.67;5.17;;;10.00;99.90;;;;;;4968105;28;20191;-73
2024/02/03 09:45:16;;;;;;;5.20;4.80;;;10.00;99.90;;;;;;4967752;28;20241;-73
2024/02/03 09:47:44;;;;;;;6.20;5.60;;;10.00;99.90;;;;;;4967707;28;20305;-74
2024/02/03 09:50:11;;;;;;;6.30;5.70;;;10.10;99.90;;;;;;4968071;28;20221;-73
2024/02/03 09:52:38;;;;;;;5.40;5.00;;;10.10;99.90;;;;;;4961722;28;20263;-73
2024/02/03 09:55:06;;;;;;;5.00;4.60;;;10.10;99.90;;;;;;4967735;28;20305;-73
2024/02/03 09:57:33;;;;;;;5.83;5.33;;;10.10;99.90;;;;;;4967375;28;20657;-73
2024/02/03 10:00:00;;;;;;;5.47;5.07;;;10.10;99.90;;;;;;4967769;28;20241;-73
2024/02/03 10:02:28;;;;;;;5.03;4.63;;;10.20;99.90;;;;;;4969466;28;20306;-73
2024/02/03 10:04:57;;;;;;;5.13;4.73;;;10.20;99.90;;;;;;4971113;28;20213;-74
2024/02/03 10:07:24;;;;;;;5.00;4.60;;;10.20;99.90;;;;;;4971785;28;20211;-74
2024/02/03 10:09:52;;;;;;;4.53;4.23;;;10.30;99.90;;;;;;4971846;28;20333;-73
2024/02/03 10:12:19;;;;;;;4.90;4.43;;;10.30;99.90;;;;;;4971992;28;20309;-74
2024/02/03 10:14:46;;;;;;;4.23;3.93;;;10.40;99.90;;;;;;4971628;28;20293;-73
2024/02/03 10:17:21;;;;;;;4.53;4.23;;;10.40;99.90;;;;;;4958208;28;20263;-73
2024/02/03 10:19:47;;;;;;;4.43;4.13;;;10.40;99.90;;;;;;4952315;28;20290;-74
2024/02/03 10:22:16;;;;;;;4.67;4.37;;;10.40;99.90;;;;;;4961270;28;20242;-74
2024/02/03 10:24:43;;;;;;;4.83;4.53;;;10.40;99.90;;;;;;4971469;28;20308;-74
2024/02/03 10:27:10;;;;;;;4.80;4.40;;;10.50;99.90;;;;;;4970849;28;20268;-74
2024/02/03 10:29:37;;;;;;;4.73;4.33;;;10.60;99.90;;;;;;4968627;28;20334;-74
2024/02/03 10:32:04;;;;;;;4.57;4.27;;;10.60;99.90;;;;;;4951170;28;20294;-74
2024/02/03 10:34:32;;;;;;;4.77;4.47;;;10.60;99.90;;;;;;4956712;28;20203;-74
2024/02/03 10:36:58;;;;;;;4.50;4.20;;;10.60;99.90;;;;;;4969357;28;20218;-74
2024/02/03 10:39:42;;;;;;;4.40;4.00;;;10.60;99.90;;;;;;4965194;28;20321;-74
2024/02/03 10:42:15;;;;;;;4.07;3.77;;;10.60;99.90;;;;;;4969241;28;20286;-74
2024/02/03 10:44:43;;;;;;;4.60;4.30;;;10.50;99.90;;;;;;4969314;28;20226;-74
2024/02/03 10:47:10;;;;;;;4.37;4.07;;;10.60;99.90;;;;;;4958578;28;20330;-74
2024/02/03 10:49:41;;;;;;;3.90;3.60;;;10.60;99.90;;;;;;4949463;28;20311;-74
2024/02/03 10:52:09;;;;;;;3.70;3.40;;;10.60;99.90;;;;;;4948802;29;20222;-74
2024/02/03 10:54:40;;;;;;;3.80;3.60;;;10.60;99.90;;;;;;4966217;28;20708;-74
2024/02/03 10:57:10;;;;;;;3.87;3.67;;;10.60;99.90;;;;;;4968223;28;20631;-74
2024/02/03 10:59:37;;;;;;;4.00;3.70;;;10.60;99.90;;;;;;4967914;28;20207;-74
2024/02/03 11:02:16;;;;;;;4.40;4.10;;;10.60;99.90;;;;;;4962697;28;20239;-74
2024/02/03 11:04:43;;;;;;;4.00;3.70;;;10.70;99.90;;;;;;4961537;28;20209;-74
2024/02/03 11:07:10;;;;;;;3.90;3.60;;;10.70;99.90;;;;;;4961689;28;20200;-73
2024/02/03 11:09:42;;;;;;;3.67;3.47;;;10.70;99.90;;;;;;4962907;28;20706;-74
2024/02/03 11:12:13;;;;;;;4.03;3.73;;;10.70;99.90;;;;;;4961558;28;20195;-74
2024/02/03 11:14:44;;;;;;;4.13;3.83;;;10.70;99.90;;;;;;4960290;28;20221;-74
2024/02/03 11:17:11;;;;;;;3.87;3.60;;;10.80;99.90;;;;;;4962439;28;20208;-74
2024/02/03 11:19:38;;;;;;;4.00;3.70;;;10.80;99.90;;;;;;4963046;28;20223;-74
2024/02/03 11:22:05;;;;;;;4.30;4.00;;;10.80;99.90;;;;;;4953151;28;20334;-74
2024/02/03 11:24:34;;;;;;;4.13;3.83;;;10.80;99.90;;;;;;4967559;28;20250;-74
2024/02/03 11:27:07;;;;;;;4.20;3.90;;;10.80;99.90;;;;;;4970221;28;20214;-74
2024/02/03 11:29:35;;;;;;;3.70;3.43;;;10.80;99.90;;;;;;4970162;28;20222;-74
2024/02/03 11:32:03;;;;;;;4.40;4.10;;;10.90;99.90;;;;;;4970129;28;20760;-74
2024/02/03 11:34:32;;;;;;;4.60;4.20;;;10.80;99.90;;;;;;4969849;28;20203;-74
2024/02/03 11:37:00;;;;;;;4.07;3.77;;;10.90;99.90;;;;;;4969465;28;20306;-74
2024/02/03 11:39:30;;;;;;;3.83;3.63;;;10.90;99.90;;;;;;4969932;28;20217;-74
2024/02/03 11:41:57;;;;;;;3.97;3.60;;;10.80;99.90;;;;;;4969929;28;20258;-74
2024/02/03 11:44:34;;;;;;;4.20;3.90;;;10.80;99.90;;;;;;4970348;28;20295;-74
2024/02/03 11:47:01;;;;;;;3.90;3.60;;;10.90;99.90;;;;;;4963684;28;20318;-74
2024/02/03 11:49:28;;;;;;;3.63;3.40;;;10.80;99.90;;;;;;4950711;28;20289;-74
2024/02/03 11:51:59;;;;;;;4.03;3.73;;;10.80;99.90;;;;;;4954997;28;20301;-74
2024/02/03 11:54:27;;;;;;;3.90;3.60;;;10.80;99.90;;;;;;4960618;28;20217;-74
2024/02/03 11:56:54;;;;;;;4.43;4.03;;;10.80;99.90;;;;;;4969715;28;20293;-74
2024/02/03 11:59:27;;;;;;;4.00;3.70;;;10.70;99.90;;;;;;4969744;28;20685;-74
2024/02/03 12:01:54;;;;;;;5.00;4.60;;;10.70;99.90;;;;;;4972858;28;20696;-73
2024/02/03 12:04:22;;;;;;;4.00;3.80;;;10.70;99.90;;;;;;4975742;28;20250;-74
2024/02/03 12:06:49;;;;;;;5.03;4.63;;;10.70;99.90;;;;;;4969456;28;20302;-74
2024/02/03 12:09:18;;;;;;;6.73;6.13;;;10.70;99.90;;;;;;4969854;28;20246;-74
2024/02/03 12:11:45;;;;;;;5.20;4.80;;;10.70;99.90;;;;;;4969573;28;20310;-74
2024/02/03 12:14:13;;;;;;;4.57;4.20;;;10.70;99.90;;;;;;4969267;28;20285;-74
2024/02/03 12:16:43;;;;;;;4.40;4.10;;;10.80;99.90;;;;;;4969324;28;20306;-74
2024/02/03 12:19:10;;;;;;;4.63;4.33;;;10.80;99.90;;;;;;4969632;28;20337;-74
2024/02/03 12:21:37;;;;;;;6.00;5.50;;;10.90;99.90;;;;;;4968799;28;20326;-73
2024/02/03 12:24:05;;;;;;;7.77;6.97;;;10.90;99.90;;;;;;4969421;28;20222;-74
2024/02/03 12:26:31;;;;;;;4.83;4.43;;;10.80;99.90;;;;;;4969107;28;20298;-74
2024/02/03 12:28:58;;;;;;;4.73;4.33;;;10.80;99.90;;;;;;4968947;28;20296;-74
2024/02/03 12:31:25;;;;;;;4.30;4.00;;;10.80;99.90;;;;;;4969100;28;20210;-74
2024/02/03 12:33:53;;;;;;;4.73;4.43;;;10.70;99.90;;;;;;4968320;28;20258;-74
2024/02/03 12:36:20;;;;;;;4.60;4.30;;;10.70;99.90;;;;;;4969314;28;20630;-74
2024/02/03 12:38:47;;;;;;;15.03;12.90;;;10.60;99.90;;;;;;4968885;28;20211;-74
2024/02/03 12:41:14;;;;;;;5.57;5.17;;;10.60;99.90;;;;;;4968471;28;20262;-74
2024/02/03 12:43:42;;;;;;;5.30;4.80;;;10.60;99.90;;;;;;4964987;28;20842;-74
2024/02/03 12:46:09;;;;;;;5.40;5.00;;;10.60;99.90;;;;;;4964391;28;20207;-74
2024/02/03 12:48:36;;;;;;;5.50;5.00;;;10.60;99.90;;;;;;4968529;28;20681;-74
2024/02/03 12:51:04;;;;;;;5.00;4.60;;;10.60;99.90;;;;;;4968433;28;20215;-74